Time;durP1;ratioP1;P1;durP2;ratioP2;P2;SDS_P1;SDS_P2;PMS_P1;PMS_P2;Temp;Humidity;BMP_temperature;BMP_pressure;BME280_temperature;BME280_humidity;BME280_pressure;Samples;Min_cycle;Max_cycle;Signal;HPM_P1;HPM_P2
2021/11/07 00:00:19;;;;;;;25.45;13.07;;;-0.30;94.10;;;;;;6259169;23;20004;-75
2021/11/07 00:03:00;;;;;;;28.35;13.57;;;-0.30;93.50;;;;;;6242908;23;20034;-77
2021/11/07 00:05:34;;;;;;;25.70;12.40;;;-0.20;93.00;;;;;;6248010;23;20386;-78
2021/11/07 00:08:32;;;;;;;25.25;12.30;;;0.10;92.30;;;;;;6216843;23;20331;-78
2021/11/07 00:11:05;;;;;;;31.55;15.75;;;0.20;93.60;;;;;;6216942;23;20012;-78
2021/11/07 00:13:31;;;;;;;24.92;14.02;;;0.20;93.90;;;;;;6218410;23;20132;-78
2021/11/07 00:16:02;;;;;;;30.13;15.38;;;0.20;93.40;;;;;;6218008;23;20040;-78
2021/11/07 00:18:36;;;;;;;26.70;15.32;;;0.30;93.90;;;;;;6218259;23;20001;-78
2021/11/07 00:21:13;;;;;;;28.77;14.43;;;0.10;95.30;;;;;;6218292;23;20004;-78
2021/11/07 00:24:03;;;;;;;25.83;13.98;;;0.00;95.10;;;;;;6218313;23;20022;-78
2021/11/07 00:26:35;;;;;;;28.40;14.27;;;0.00;93.70;;;;;;6216977;23;20075;-78
2021/11/07 00:29:08;;;;;;;27.73;14.52;;;0.30;93.00;;;;;;6217707;23;20289;-77
2021/11/07 00:31:50;;;;;;;32.17;15.30;;;0.50;92.70;;;;;;6217718;23;20028;-78
2021/11/07 00:37:08;;;;;;;32.55;14.68;;;0.80;92.80;;;;;;6228160;23;20051;-76
2021/11/07 00:42:11;;;;;;;21.08;12.18;;;0.70;94.90;;;;;;6227107;23;20377;-76
2021/11/07 00:45:03;;;;;;;25.98;13.68;;;0.60;95.30;;;;;;6218048;23;20275;-77
2021/11/07 00:50:06;;;;;;;23.83;12.40;;;0.60;95.30;;;;;;6228179;23;20015;-77
2021/11/07 00:52:49;;;;;;;26.95;12.43;;;0.50;95.90;;;;;;6217762;23;20004;-76
2021/11/07 01:03:01;;;;;;;27.17;13.38;;;0.10;95.50;;;;;;6227912;23;20335;-76
2021/11/07 01:05:30;;;;;;;26.90;14.85;;;0.20;94.70;;;;;;6216616;23;20469;-77
2021/11/07 01:07:56;;;;;;;27.08;13.70;;;0.20;95.50;;;;;;6246147;23;20016;-77
2021/11/07 01:10:24;;;;;;;28.58;14.10;;;0.10;95.60;;;;;;6247908;23;20079;-78
2021/11/07 01:12:50;;;;;;;29.50;13.98;;;0.10;94.90;;;;;;6220780;23;20014;-78
2021/11/07 01:15:17;;;;;;;28.00;13.32;;;0.00;95.00;;;;;;6248733;23;19996;-77
2021/11/07 01:17:43;;;;;;;35.72;16.65;;;0.00;94.80;;;;;;6222496;23;20086;-78
2021/11/07 01:20:10;;;;;;;27.27;13.68;;;0.00;95.50;;;;;;6222618;23;20008;-77
2021/11/07 01:25:08;;;;;;;34.17;16.75;;;-0.20;95.20;;;;;;6259352;23;20004;-78
2021/11/07 01:27:38;;;;;;;29.40;13.82;;;-0.30;94.90;;;;;;6218237;23;20077;-78
2021/11/07 01:30:09;;;;;;;33.70;15.00;;;-0.30;94.40;;;;;;6247099;23;20004;-78
2021/11/07 01:32:39;;;;;;;27.70;14.98;;;-0.30;94.40;;;;;;6245713;23;20099;-79
2021/11/07 01:35:25;;;;;;;31.85;15.55;;;-0.40;94.70;;;;;;6246245;23;20011;-78
2021/11/07 01:38:09;;;;;;;32.95;15.30;;;-0.40;94.50;;;;;;6245965;23;20362;-78
2021/11/07 01:40:40;;;;;;;;;;;-0.50;94.80;;;;;;6245239;23;20054;-78
2021/11/07 01:43:06;;;;;;;24.77;14.35;;;-0.70;95.50;;;;;;6246434;23;20173;-77
2021/11/07 01:45:41;;;;;;;32.85;16.48;;;-0.80;94.60;;;;;;6246251;23;20004;-78
2021/11/07 01:48:14;;;;;;;28.88;16.23;;;-0.80;94.50;;;;;;6245805;23;20015;-78
2021/11/07 01:50:46;;;;;;;30.45;16.00;;;-0.70;94.40;;;;;;6246127;23;20053;-78
2021/11/07 01:53:20;;;;;;;32.58;15.80;;;-0.80;94.90;;;;;;6245829;23;20027;-78
2021/11/07 01:55:47;;;;;;;26.98;13.50;;;-0.80;94.00;;;;;;6245383;23;20015;-77
2021/11/07 01:58:13;;;;;;;29.45;14.50;;;-0.80;93.90;;;;;;6246516;23;20000;-77
2021/11/07 02:00:42;;;;;;;36.30;16.95;;;-0.70;92.80;;;;;;6246169;23;20004;-77
2021/11/07 02:03:08;;;;;;;34.88;16.52;;;-0.40;91.70;;;;;;6220333;23;20062;-78
2021/11/07 02:05:34;;;;;;;35.88;15.73;;;-0.20;92.50;;;;;;6219145;23;20374;-78
2021/11/07 02:07:59;;;;;;;33.85;16.00;;;-0.20;92.00;;;;;;6246496;23;20317;-77
2021/11/07 02:10:25;;;;;;;31.77;15.80;;;-0.10;92.00;;;;;;6245501;23;20015;-77
2021/11/07 02:12:51;;;;;;;29.60;14.77;;;0.10;91.70;;;;;;6219435;23;20016;-77
2021/11/07 02:15:19;;;;;;;29.77;14.55;;;0.10;91.60;;;;;;6220497;23;20012;-78
2021/11/07 02:17:46;;;;;;;30.15;15.15;;;0.20;92.60;;;;;;6219860;23;20380;-78
2021/11/07 02:20:24;;;;;;;30.08;14.88;;;0.20;91.50;;;;;;6246671;23;20005;-78
2021/11/07 02:22:51;;;;;;;33.53;15.93;;;0.60;90.20;;;;;;6220618;23;20189;-79
2021/11/07 02:25:17;;;;;;;28.17;15.57;;;0.90;90.80;;;;;;6248842;23;20362;-77
2021/11/07 02:27:43;;;;;;;29.40;14.98;;;1.10;90.40;;;;;;6220371;23;20035;-77
2021/11/07 02:30:12;;;;;;;29.13;14.35;;;1.40;91.70;;;;;;6248605;23;20030;-78
2021/11/07 02:32:38;;;;;;;21.85;12.35;;;1.60;92.90;;;;;;6221814;23;20358;-78
2021/11/07 02:35:05;;;;;;;21.20;11.45;;;1.80;94.00;;;;;;6221986;23;20004;-78
2021/11/07 02:37:30;;;;;;;24.00;11.90;;;1.90;94.90;;;;;;6248909;23;20218;-77
2021/11/07 02:39:56;;;;;;;19.60;10.60;;;2.30;94.90;;;;;;6248838;23;20000;-77
2021/11/07 02:42:22;;;;;;;17.45;9.40;;;2.70;98.00;;;;;;6244938;23;20397;-78
2021/11/07 02:44:48;;;;;;;20.27;12.50;;;2.90;98.00;;;;;;6246627;23;20038;-78
2021/11/07 02:47:16;;;;;;;18.27;11.20;;;3.10;98.00;;;;;;6219571;23;20015;-77
2021/11/07 02:49:43;;;;;;;19.38;10.38;;;2.80;98.00;;;;;;6219111;23;20008;-76
2021/11/07 02:52:13;;;;;;;18.52;10.63;;;2.40;98.00;;;;;;6220990;23;20004;-77
2021/11/07 02:54:40;;;;;;;20.63;11.50;;;2.20;98.00;;;;;;6221026;23;20004;-76
2021/11/07 02:57:08;;;;;;;20.00;11.65;;;2.20;98.00;;;;;;6246632;23;20000;-77
2021/11/07 02:59:38;;;;;;;25.27;13.02;;;2.20;98.00;;;;;;6248213;23;20364;-77
2021/11/07 03:02:05;;;;;;;25.58;12.77;;;2.30;98.00;;;;;;6247842;23;20362;-77
2021/11/07 03:04:32;;;;;;;22.27;12.43;;;2.40;98.00;;;;;;6221036;23;20449;-78
2021/11/07 03:06:58;;;;;;;23.92;12.85;;;2.40;98.00;;;;;;6249811;23;20027;-77
2021/11/07 03:09:27;;;;;;;24.98;13.38;;;2.30;98.00;;;;;;6223509;23;20004;-78
2021/11/07 03:11:54;;;;;;;22.25;11.88;;;2.30;98.00;;;;;;6222072;23;20008;-78
2021/11/07 03:14:26;;;;;;;25.10;12.20;;;2.20;98.00;;;;;;6250262;23;20366;-78
2021/11/07 03:16:53;;;;;;;21.95;11.55;;;1.90;98.00;;;;;;6250424;23;20027;-77
2021/11/07 03:19:21;;;;;;;24.15;12.02;;;1.60;98.00;;;;;;6250302;23;20008;-77
2021/11/07 03:21:48;;;;;;;20.77;11.68;;;1.30;98.00;;;;;;6223002;23;20324;-77
2021/11/07 03:24:15;;;;;;;21.48;11.52;;;1.20;98.00;;;;;;6250358;23;20273;-77
2021/11/07 03:26:42;;;;;;;23.02;12.23;;;1.20;98.00;;;;;;6248581;23;20079;-78
2021/11/07 03:29:09;;;;;;;24.23;12.90;;;1.00;98.00;;;;;;6250523;23;20004;-77
2021/11/07 03:34:13;;;;;;;27.95;13.35;;;0.80;97.70;;;;;;6260180;23;20258;-78
2021/11/07 03:36:50;;;;;;;24.08;13.00;;;0.70;98.00;;;;;;6250399;23;20000;-79
2021/11/07 03:39:18;;;;;;;24.55;11.88;;;0.40;98.00;;;;;;6249840;23;20005;-78
2021/11/07 03:41:45;;;;;;;28.15;13.27;;;0.20;98.00;;;;;;6220975;23;20008;-78
2021/11/07 03:44:13;;;;;;;27.40;12.85;;;0.00;97.70;;;;;;6249086;23;20008;-78
2021/11/07 03:46:40;;;;;;;24.58;12.60;;;0.10;95.80;;;;;;6223320;23;20036;-78
2021/11/07 03:49:06;;;;;;;32.42;14.73;;;0.30;95.40;;;;;;6249450;23;20004;-77
2021/11/07 03:51:32;;;;;;;27.05;13.48;;;0.30;95.70;;;;;;6222427;23;20439;-78
2021/11/07 03:53:58;;;;;;;35.38;15.18;;;0.30;95.30;;;;;;6249976;23;20000;-77
2021/11/07 03:56:27;;;;;;;29.55;14.18;;;0.30;94.70;;;;;;6248188;23;20000;-77
2021/11/07 03:58:53;;;;;;;24.85;13.10;;;0.40;93.40;;;;;;6249912;23;20078;-78
2021/11/07 04:01:19;;;;;;;26.88;14.02;;;0.40;95.00;;;;;;6222909;23;20015;-77
2021/11/07 04:03:45;;;;;;;26.70;13.85;;;0.30;93.70;;;;;;6249802;23;20004;-78
2021/11/07 04:06:12;;;;;;;24.10;12.75;;;0.40;93.90;;;;;;6249487;23;20373;-77
2021/11/07 04:08:41;;;;;;;29.33;14.13;;;0.40;93.50;;;;;;6223179;23;20012;-77
2021/11/07 04:11:08;;;;;;;110.18;40.08;;;0.70;94.00;;;;;;6248258;23;20062;-78
2021/11/07 04:13:38;;;;;;;99.80;38.83;;;0.50;94.30;;;;;;6223127;23;20004;-79
2021/11/07 04:16:05;;;;;;;53.85;23.42;;;0.40;94.50;;;;;;6249841;23;19996;-77
2021/11/07 04:18:30;;;;;;;50.38;21.33;;;0.10;95.50;;;;;;6222881;23;20015;-77
2021/11/07 04:20:56;;;;;;;37.75;17.80;;;0.10;94.40;;;;;;6222869;23;20008;-78
2021/11/07 04:23:22;;;;;;;36.10;17.45;;;0.20;94.10;;;;;;6222824;23;20347;-76
2021/11/07 04:25:47;;;;;;;39.95;17.92;;;0.20;94.30;;;;;;6221356;23;20012;-77
2021/11/07 04:28:13;;;;;;;31.05;16.90;;;0.10;95.30;;;;;;6223293;23;20011;-78
2021/11/07 04:30:39;;;;;;;38.22;18.25;;;0.10;93.70;;;;;;6249461;23;20007;-77
2021/11/07 04:33:04;;;;;;;33.05;16.10;;;0.00;94.30;;;;;;6249828;23;19992;-78
2021/11/07 04:35:31;;;;;;;33.83;16.08;;;0.00;94.50;;;;;;6222858;23;20125;-78
2021/11/07 04:37:57;;;;;;;39.25;17.83;;;0.10;93.70;;;;;;6249470;23;20000;-78
2021/11/07 04:40:26;;;;;;;33.30;16.77;;;0.10;94.50;;;;;;6222248;23;20329;-77
2021/11/07 04:42:52;;;;;;;34.25;16.63;;;0.00;95.30;;;;;;6249517;23;19996;-76
2021/11/07 04:45:19;;;;;;;44.22;18.08;;;-0.20;95.70;;;;;;6249736;23;20004;-78
2021/11/07 04:47:46;;;;;;;33.05;17.20;;;-0.40;95.10;;;;;;6249399;23;20000;-78
2021/11/07 04:50:15;;;;;;;38.28;16.92;;;-0.50;95.20;;;;;;6248862;23;20004;-78
2021/11/07 04:52:40;;;;;;;28.42;15.43;;;-0.60;95.20;;;;;;6249215;23;20004;-77
2021/11/07 04:55:07;;;;;;;27.48;15.27;;;-0.60;94.00;;;;;;6222320;23;20004;-77
2021/11/07 04:57:33;;;;;;;37.95;16.60;;;-0.70;94.60;;;;;;6221547;23;20317;-77
2021/11/07 04:59:59;;;;;;;30.58;16.02;;;-0.70;94.90;;;;;;6249304;23;20004;-78
2021/11/07 05:02:25;;;;;;;35.80;16.88;;;-0.70;93.00;;;;;;6249268;23;20046;-76
2021/11/07 05:04:54;;;;;;;32.45;16.13;;;-0.70;93.80;;;;;;6249478;23;20057;-78
2021/11/07 05:07:21;;;;;;;34.03;16.60;;;-0.60;92.30;;;;;;6248865;23;20320;-78
2021/11/07 05:09:47;;;;;;;30.83;15.57;;;-0.50;93.10;;;;;;6249298;23;20008;-77
2021/11/07 05:12:14;;;;;;;29.33;15.25;;;-0.40;90.10;;;;;;6247968;23;20324;-77
2021/11/07 05:14:39;;;;;;;27.65;15.10;;;0.10;90.80;;;;;;6222123;23;20039;-77
2021/11/07 05:17:05;;;;;;;27.50;13.63;;;0.10;91.90;;;;;;6249475;23;19997;-77
2021/11/07 05:19:32;;;;;;;27.83;14.52;;;0.30;90.10;;;;;;6222603;23;20004;-77
2021/11/07 05:21:58;;;;;;;29.83;14.57;;;0.30;92.30;;;;;;6248655;23;20492;-77
2021/11/07 05:24:24;;;;;;;24.95;13.98;;;0.20;93.20;;;;;;6249049;23;20074;-76
2021/11/07 05:26:50;;;;;;;24.83;13.73;;;0.30;91.80;;;;;;6247411;23;20369;-79
2021/11/07 05:29:15;;;;;;;22.70;12.23;;;0.30;93.00;;;;;;6249495;23;20000;-76
2021/11/07 05:31:41;;;;;;;25.45;13.18;;;0.50;90.50;;;;;;6249061;23;20008;-76
2021/11/07 05:34:06;;;;;;;25.02;13.93;;;0.70;91.30;;;;;;6249683;23;19996;-77
2021/11/07 05:36:33;;;;;;;25.70;12.40;;;1.00;91.00;;;;;;6248542;23;20096;-77
2021/11/07 05:38:59;;;;;;;21.77;11.82;;;1.10;91.30;;;;;;6248819;23;20354;-78
2021/11/07 05:41:24;;;;;;;23.10;12.55;;;1.20;91.80;;;;;;6247861;23;20015;-78
2021/11/07 05:43:50;;;;;;;20.83;11.38;;;1.40;92.20;;;;;;6248949;23;20035;-77
2021/11/07 05:46:16;;;;;;;18.60;11.13;;;1.60;93.30;;;;;;6248917;23;20035;-76
2021/11/07 05:48:42;;;;;;;20.73;11.32;;;1.70;94.70;;;;;;6248356;23;20000;-76
2021/11/07 05:51:08;;;;;;;19.95;10.85;;;1.70;95.70;;;;;;6247891;23;20366;-76
2021/11/07 05:53:34;;;;;;;18.88;10.90;;;1.80;96.90;;;;;;6248439;23;20304;-78
2021/11/07 05:56:00;;;;;;;18.05;10.48;;;1.80;97.70;;;;;;6246580;23;20053;-79
2021/11/07 05:58:26;;;;;;;21.15;11.10;;;1.60;98.00;;;;;;6248190;23;20024;-78
2021/11/07 06:00:52;;;;;;;20.25;11.02;;;1.70;97.80;;;;;;6221527;23;20158;-77
2021/11/07 06:03:19;;;;;;;20.15;11.75;;;1.90;97.60;;;;;;6248327;23;20014;-78
2021/11/07 06:05:45;;;;;;;19.75;10.35;;;2.00;98.00;;;;;;6248517;23;20007;-78
2021/11/07 06:08:10;;;;;;;18.92;10.32;;;1.70;98.00;;;;;;6222126;23;20016;-78
2021/11/07 06:10:36;;;;;;;19.58;10.43;;;1.80;98.00;;;;;;6247377;23;20431;-79
2021/11/07 06:13:03;;;;;;;20.23;11.02;;;2.20;98.00;;;;;;6248413;23;20400;-78
2021/11/07 06:15:29;;;;;;;19.27;11.15;;;2.30;98.00;;;;;;6222353;23;20000;-78
2021/11/07 06:17:56;;;;;;;20.38;10.57;;;2.50;98.00;;;;;;6248807;23;20007;-78
2021/11/07 06:20:22;;;;;;;18.05;10.43;;;2.60;98.00;;;;;;6248323;23;20007;-77
2021/11/07 06:22:48;;;;;;;17.65;10.20;;;2.80;98.00;;;;;;6221896;23;20008;-77
2021/11/07 06:25:14;;;;;;;20.10;11.13;;;2.80;98.00;;;;;;6222320;23;20004;-78
2021/11/07 06:27:41;;;;;;;16.38;9.82;;;2.70;98.00;;;;;;6222629;23;20014;-77
2021/11/07 06:30:09;;;;;;;15.93;9.27;;;2.70;98.00;;;;;;6251035;23;20282;-78
2021/11/07 06:32:35;;;;;;;19.60;10.20;;;2.70;98.00;;;;;;6250621;23;20274;-79
2021/11/07 06:35:02;;;;;;;19.58;10.55;;;2.70;98.00;;;;;;6250522;23;20004;-78
2021/11/07 06:37:28;;;;;;;17.80;10.32;;;2.70;98.00;;;;;;6224076;23;20000;-78
2021/11/07 06:39:54;;;;;;;16.08;9.40;;;2.80;98.00;;;;;;6250671;23;20000;-78
2021/11/07 06:42:19;;;;;;;15.15;9.82;;;2.80;98.00;;;;;;6222727;23;20000;-78
2021/11/07 06:44:45;;;;;;;14.20;8.35;;;2.90;98.00;;;;;;6250365;23;19996;-78
2021/11/07 06:47:12;;;;;;;14.45;8.68;;;3.00;98.00;;;;;;6250466;23;20057;-78
2021/11/07 06:49:38;;;;;;;12.98;7.05;;;3.20;98.00;;;;;;6250206;23;20371;-77
2021/11/07 06:52:04;;;;;;;13.23;7.28;;;3.30;98.00;;;;;;6250282;23;20003;-77
2021/11/07 06:54:29;;;;;;;12.07;6.00;;;3.40;98.00;;;;;;6223912;23;20043;-77
2021/11/07 06:56:55;;;;;;;11.80;6.57;;;3.60;98.00;;;;;;6222691;23;20000;-77
2021/11/07 06:59:21;;;;;;;12.13;5.80;;;3.60;98.00;;;;;;6250622;23;20231;-78
2021/11/07 07:01:47;;;;;;;11.00;5.95;;;3.60;98.00;;;;;;6250093;23;20000;-76
2021/11/07 07:04:13;;;;;;;10.32;5.18;;;3.70;98.00;;;;;;6250357;23;20004;-77
2021/11/07 07:06:39;;;;;;;8.15;5.22;;;3.90;98.00;;;;;;6250271;23;20243;-77
2021/11/07 07:09:07;;;;;;;10.02;5.22;;;4.10;98.00;;;;;;6250112;23;20007;-78
2021/11/07 07:11:48;;;;;;;9.52;5.15;;;4.10;98.00;;;;;;6248730;23;20251;-77
2021/11/07 07:14:20;;;;;;;8.55;5.03;;;4.00;98.00;;;;;;6251026;23;20000;-77
2021/11/07 07:19:28;;;;;;;7.20;4.28;;;4.10;98.00;;;;;;6260550;23;20004;-76
2021/11/07 07:27:31;;;;;;;6.78;4.18;;;5.00;95.00;;;;;;6259115;23;20012;-78
2021/11/07 07:32:47;;;;;;;7.68;4.22;;;5.30;93.70;;;;;;6260908;23;20006;-78
2021/11/07 07:35:13;;;;;;;5.80;3.53;;;5.40;93.80;;;;;;6250094;23;20007;-78
2021/11/07 07:37:39;;;;;;;6.80;3.97;;;5.60;94.10;;;;;;6249547;23;19996;-77
2021/11/07 07:40:07;;;;;;;7.00;4.43;;;5.80;93.50;;;;;;6223741;23;20004;-77
2021/11/07 07:42:33;;;;;;;7.05;4.05;;;5.90;91.40;;;;;;6248751;23;20034;-77
2021/11/07 07:45:01;;;;;;;7.43;3.33;;;6.00;90.10;;;;;;6250221;23;20062;-78
2021/11/07 07:47:28;;;;;;;9.93;3.83;;;6.30;90.40;;;;;;6249984;23;20004;-77
2021/11/07 07:49:54;;;;;;;6.75;3.70;;;6.80;89.30;;;;;;6249970;23;20269;-77
2021/11/07 07:52:26;;;;;;;5.00;3.03;;;7.30;88.50;;;;;;6223388;23;20004;-78
2021/11/07 07:54:52;;;;;;;6.05;2.83;;;7.60;83.90;;;;;;6223415;23;20331;-78
2021/11/07 07:57:18;;;;;;;4.70;2.70;;;7.50;82.90;;;;;;6222224;23;20054;-78
2021/11/07 07:59:44;;;;;;;7.00;3.00;;;7.40;82.30;;;;;;6249797;23;19996;-77
2021/11/07 08:02:10;;;;;;;5.82;2.95;;;7.20;82.20;;;;;;6223291;23;20266;-78
2021/11/07 08:04:37;;;;;;;7.25;3.20;;;7.20;82.60;;;;;;6250010;23;19996;-77
2021/11/07 08:07:03;;;;;;;6.25;2.50;;;7.30;83.70;;;;;;6249232;23;20016;-77
2021/11/07 08:09:28;;;;;;;4.68;2.35;;;7.30;80.80;;;;;;6249971;23;20003;-78
2021/11/07 08:11:54;;;;;;;4.82;2.20;;;7.30;81.00;;;;;;6248183;23;20414;-78
2021/11/07 08:14:20;;;;;;;3.70;1.90;;;7.40;79.80;;;;;;6249841;23;20008;-77
2021/11/07 08:16:46;;;;;;;5.00;2.22;;;7.60;79.00;;;;;;6249665;23;20050;-76
2021/11/07 08:19:11;;;;;;;5.68;2.90;;;8.10;78.00;;;;;;6222428;23;20050;-77
2021/11/07 08:21:38;;;;;;;7.07;3.38;;;8.90;75.60;;;;;;6249675;23;20366;-75
2021/11/07 08:24:10;;;;;;;8.30;4.28;;;9.50;74.90;;;;;;6249604;23;20000;-79
2021/11/07 08:26:39;;;;;;;14.05;6.70;;;9.80;74.90;;;;;;6248243;23;20028;-78
2021/11/07 08:29:06;;;;;;;6.88;3.10;;;9.90;74.40;;;;;;6249720;23;20077;-78
2021/11/07 08:31:34;;;;;;;6.45;3.50;;;9.60;73.30;;;;;;6249412;23;20083;-78
2021/11/07 08:34:03;;;;;;;8.23;3.15;;;9.50;74.30;;;;;;6222925;23;20600;-78
2021/11/07 08:36:39;;;;;;;7.57;3.53;;;9.90;74.70;;;;;;6250101;23;20078;-77
2021/11/07 08:39:13;;;;;;;4.97;2.63;;;10.40;72.70;;;;;;6249567;23;20000;-77
2021/11/07 08:41:46;;;;;;;4.50;2.45;;;10.80;70.70;;;;;;6248124;23;20008;-77
2021/11/07 09:05:23;;;;;;;5.53;3.13;;;7.70;76.10;;;;;;6259515;23;20004;-78
2021/11/07 09:10:35;;;;;;;5.20;3.22;;;7.10;77.40;;;;;;6258185;23;20016;-77
2021/11/07 09:13:03;;;;;;;6.72;3.30;;;7.10;78.40;;;;;;6248881;23;20361;-80
2021/11/07 09:15:31;;;;;;;5.78;3.08;;;7.20;77.80;;;;;;6248795;23;20000;-77
2021/11/07 09:17:59;;;;;;;5.68;3.47;;;7.40;78.80;;;;;;6249286;23;20007;-77
2021/11/07 09:20:40;;;;;;;5.55;3.75;;;7.70;78.00;;;;;;6248690;23;20004;-78
2021/11/07 09:23:30;;;;;;;7.43;4.05;;;7.80;76.50;;;;;;6249287;23;20031;-77
2021/11/07 09:36:33;;;;;;;6.85;4.03;;;7.80;76.90;;;;;;6259888;23;20058;-77
2021/11/07 09:39:07;;;;;;;9.20;3.58;;;7.80;77.70;;;;;;6247962;23;20130;-76
2021/11/07 09:44:15;;;;;;;6.03;3.30;;;7.60;76.80;;;;;;6259244;23;20015;-75
2021/11/07 09:47:04;;;;;;;7.22;3.40;;;7.30;76.30;;;;;;6248903;23;20011;-76
2021/11/07 09:49:31;;;;;;;7.47;3.33;;;7.70;77.00;;;;;;6247685;23;20453;-76
2021/11/07 09:52:19;;;;;;;7.95;3.35;;;8.70;74.90;;;;;;6248770;23;20004;-77
2021/11/07 09:54:50;;;;;;;6.15;3.45;;;9.70;72.50;;;;;;6248715;23;20003;-77
2021/11/07 09:57:21;;;;;;;6.72;3.75;;;10.00;71.20;;;;;;6246936;23;20297;-76
2021/11/07 09:59:52;;;;;;;6.70;3.60;;;9.80;71.60;;;;;;6249512;23;20005;-76
2021/11/07 10:02:19;;;;;;;5.93;3.25;;;9.80;72.20;;;;;;6251559;23;20003;-76
2021/11/07 10:04:47;;;;;;;6.22;3.40;;;10.30;72.40;;;;;;6225497;23;20338;-77
2021/11/07 10:07:19;;;;;;;6.75;3.75;;;10.80;69.70;;;;;;6251751;23;20012;-77
2021/11/07 10:09:46;;;;;;;6.45;3.53;;;10.60;70.10;;;;;;6225504;23;20007;-76
2021/11/07 10:12:18;;;;;;;5.15;2.75;;;10.40;71.40;;;;;;6250197;23;20003;-76
2021/11/07 10:14:52;;;;;;;6.25;2.60;;;10.90;69.80;;;;;;6251804;23;20358;-76
2021/11/07 10:17:48;;;;;;;4.65;2.70;;;11.80;68.50;;;;;;6250792;23;20031;-76
2021/11/07 10:20:41;;;;;;;7.50;3.67;;;12.30;67.40;;;;;;6251618;23;20007;-75
2021/11/07 10:23:28;;;;;;;7.55;4.20;;;11.60;68.90;;;;;;6251765;23;20012;-75
2021/11/07 10:28:33;;;;;;;12.38;7.50;;;11.50;70.20;;;;;;6251536;23;20255;-76
2021/11/07 10:31:08;;;;;;;6.55;3.55;;;11.90;69.40;;;;;;6225294;23;20008;-74
2021/11/07 10:40:35;;;;;;;7.53;2.85;;;11.60;65.90;;;;;;6262396;23;20066;-76
2021/11/07 10:42:50;;;;;;;4.85;2.20;;;11.00;66.50;;;;;;6238617;23;20000;-76
2021/11/07 10:45:26;;;;;;;7.22;3.67;;;10.80;68.00;;;;;;6252048;23;20100;-74
2021/11/07 10:53:27;;;;;;;4.15;1.98;;;10.80;70.20;;;;;;6252265;23;20007;-76
2021/11/07 10:56:01;;;;;;;4.95;2.60;;;11.30;68.00;;;;;;6249650;23;20078;-75
2021/11/07 10:58:30;;;;;;;3.97;2.08;;;12.20;68.10;;;;;;6251900;23;20373;-74
2021/11/07 11:01:01;;;;;;;5.00;2.30;;;12.80;66.40;;;;;;6252036;23;20005;-74
2021/11/07 11:03:27;;;;;;;5.45;2.83;;;12.30;65.40;;;;;;6251785;23;20324;-74
2021/11/07 11:08:43;;;;;;;6.97;3.60;;;10.70;70.00;;;;;;6262386;23;20014;-73
2021/11/07 11:31:50;;;;;;;6.40;3.60;;;9.60;75.10;;;;;;6260217;23;20018;-74
2021/11/07 11:34:19;;;;;;;6.97;3.97;;;9.60;75.00;;;;;;6223230;23;20393;-74
2021/11/07 11:37:11;;;;;;;5.25;2.85;;;9.60;74.20;;;;;;6249991;23;20007;-73
2021/11/07 11:39:40;;;;;;;6.45;3.60;;;9.60;73.70;;;;;;6248709;23;20001;-74
2021/11/07 11:42:12;;;;;;;8.07;3.00;;;9.40;74.80;;;;;;6248430;23;20079;-73
2021/11/07 11:44:38;;;;;;;4.75;2.88;;;9.50;74.20;;;;;;6250247;23;20008;-76
2021/11/07 11:47:53;;;;;;;5.18;2.90;;;9.50;74.10;;;;;;6250274;23;20381;-75
2021/11/07 11:53:22;;;;;;;5.78;2.83;;;10.00;73.80;;;;;;6260150;23;20050;-76
2021/11/07 11:56:03;;;;;;;5.70;2.78;;;10.20;73.70;;;;;;6248265;23;20079;-76
2021/11/07 11:58:55;;;;;;;5.20;2.83;;;10.50;73.60;;;;;;6222614;23;20059;-76
2021/11/07 12:01:28;;;;;;;5.15;2.60;;;11.10;72.60;;;;;;6249381;23;20032;-76
2021/11/07 12:06:49;;;;;;;12.85;5.65;;;11.70;71.10;;;;;;6254712;23;20081;-75
2021/11/07 12:12:04;;;;;;;13.65;6.28;;;11.90;72.30;;;;;;6243711;22;20049;-73
2021/11/07 12:14:41;;;;;;;7.50;4.28;;;11.70;72.00;;;;;;6247950;22;20003;-73
2021/11/07 12:17:10;;;;;;;10.15;5.15;;;11.40;73.00;;;;;;6220908;23;20263;-76
2021/11/07 12:19:41;;;;;;;7.43;3.42;;;11.50;73.40;;;;;;6220087;23;20361;-75
2021/11/07 12:22:13;;;;;;;5.32;2.80;;;11.70;73.80;;;;;;6247581;22;20085;-75
2021/11/07 12:24:48;;;;;;;7.07;2.92;;;12.10;72.40;;;;;;6221659;23;20004;-76
2021/11/07 12:27:43;;;;;;;6.05;2.95;;;12.30;72.10;;;;;;6246144;22;20074;-76
2021/11/07 12:30:15;;;;;;;4.20;2.20;;;12.60;73.20;;;;;;6221247;22;20012;-75
2021/11/07 12:32:43;;;;;;;6.10;2.25;;;12.20;70.10;;;;;;6248341;22;20377;-75
2021/11/07 12:35:24;;;;;;;5.50;2.78;;;11.60;71.70;;;;;;6243995;22;20079;-73
2021/11/07 12:40:52;;;;;;;12.00;5.32;;;10.70;75.20;;;;;;6242284;22;20027;-76
2021/11/07 12:43:46;;;;;;;5.45;2.63;;;10.90;75.50;;;;;;6221926;23;20401;-76
2021/11/07 12:46:46;;;;;;;6.13;2.30;;;11.30;74.20;;;;;;6167765;23;20274;-75
2021/11/07 12:49:14;;;;;;;4.80;2.08;;;11.30;73.30;;;;;;6247493;22;20008;-74
2021/11/07 12:51:48;;;;;;;6.30;2.92;;;11.40;73.00;;;;;;6221653;23;20004;-76
2021/11/07 12:54:24;;;;;;;7.38;4.18;;;11.70;72.30;;;;;;6248801;23;19996;-75
2021/11/07 12:56:56;;;;;;;4.72;2.10;;;12.10;71.80;;;;;;6220957;23;20008;-74
2021/11/07 12:59:24;;;;;;;5.68;2.60;;;11.70;71.70;;;;;;6249099;23;20440;-74
2021/11/07 13:02:02;;;;;;;3.95;1.80;;;11.30;72.30;;;;;;6245993;23;20430;-76
2021/11/07 13:04:53;;;;;;;5.43;2.22;;;10.70;73.50;;;;;;6247506;22;20018;-75
2021/11/07 13:07:29;;;;;;;7.20;2.60;;;10.10;74.60;;;;;;6247876;22;20012;-76
2021/11/07 13:09:58;;;;;;;4.70;2.05;;;9.70;76.10;;;;;;6221322;23;20014;-75
2021/11/07 13:15:11;;;;;;;5.53;2.53;;;9.40;77.40;;;;;;6251251;22;20007;-76
2021/11/07 13:18:07;;;;;;;3.67;1.77;;;9.40;78.20;;;;;;6248178;22;20008;-75
2021/11/07 13:26:43;;;;;;;4.07;1.88;;;9.40;80.40;;;;;;6245675;22;20065;-76
2021/11/07 13:29:27;;;;;;;4.00;1.83;;;9.30;81.40;;;;;;6221431;23;20086;-75
2021/11/07 13:32:13;;;;;;;5.20;1.95;;;9.40;82.20;;;;;;6248121;22;20098;-76
2021/11/07 13:35:07;;;;;;;4.93;1.90;;;9.50;82.20;;;;;;6220690;23;20274;-75
2021/11/07 13:37:54;;;;;;;6.30;2.88;;;9.40;82.60;;;;;;6221751;22;20013;-75
2021/11/07 13:40:31;;;;;;;6.78;3.50;;;9.30;83.10;;;;;;6219966;23;20016;-76
2021/11/07 13:43:15;;;;;;;9.50;4.55;;;9.20;83.50;;;;;;6247165;22;20011;-75
2021/11/07 13:45:44;;;;;;;9.05;4.65;;;9.10;84.10;;;;;;6245443;22;20004;-76
2021/11/07 13:48:24;;;;;;;11.88;5.32;;;9.10;84.70;;;;;;6245762;23;20004;-76
2021/11/07 13:50:53;;;;;;;9.63;4.68;;;9.10;85.60;;;;;;6217215;23;20035;-75
2021/11/07 13:53:28;;;;;;;7.22;3.55;;;9.10;85.90;;;;;;6245578;22;20008;-74
2021/11/07 13:55:58;;;;;;;7.63;3.08;;;9.10;86.90;;;;;;6245332;22;20075;-75
2021/11/07 13:58:31;;;;;;;9.88;3.97;;;9.00;88.10;;;;;;6218199;22;20007;-77
2021/11/07 14:01:04;;;;;;;7.00;3.47;;;8.80;89.40;;;;;;6245189;22;20008;-76
2021/11/07 14:03:30;;;;;;;5.73;2.67;;;8.70;89.90;;;;;;6244801;22;20008;-75
2021/11/07 14:06:11;;;;;;;4.35;2.13;;;8.70;90.30;;;;;;6245990;22;20054;-76
2021/11/07 14:08:55;;;;;;;5.20;2.15;;;8.70;90.30;;;;;;6246252;22;20051;-77
2021/11/07 14:11:22;;;;;;;3.58;1.83;;;8.80;90.50;;;;;;6242259;22;20020;-76
2021/11/07 14:14:00;;;;;;;7.18;2.13;;;8.60;90.10;;;;;;6245807;22;20433;-75
2021/11/07 14:16:34;;;;;;;3.70;1.75;;;8.50;90.50;;;;;;6218739;22;20020;-76
2021/11/07 14:19:07;;;;;;;7.53;3.00;;;8.50;90.40;;;;;;6218319;23;20012;-77
2021/11/07 14:21:37;;;;;;;6.90;3.03;;;8.60;90.50;;;;;;6245032;22;20008;-77
2021/11/07 14:35:22;;;;;;;10.13;4.70;;;8.40;90.40;;;;;;6246805;22;20134;-76
2021/11/07 14:37:56;;;;;;;6.57;3.83;;;8.40;90.40;;;;;;6191267;23;20270;-76
2021/11/07 14:43:41;;;;;;;7.97;2.63;;;8.30;89.00;;;;;;6244931;22;20015;-76
2021/11/07 14:46:23;;;;;;;8.20;4.38;;;8.20;88.30;;;;;;6238790;22;20000;-76
2021/11/07 14:49:00;;;;;;;6.10;3.50;;;8.10;87.60;;;;;;6220730;23;20030;-76
2021/11/07 14:59:32;;;;;;;5.70;2.70;;;7.90;87.60;;;;;;6258725;23;20019;-76
2021/11/07 15:02:41;;;;;;;9.68;5.43;;;7.90;87.90;;;;;;6247276;23;20004;-76
2021/11/07 15:08:26;;;;;;;15.70;9.40;;;7.80;88.20;;;;;;6200268;23;20023;-76
2021/11/07 15:11:23;;;;;;;8.70;5.03;;;7.80;88.50;;;;;;6245126;23;20009;-77
2021/11/07 15:13:57;;;;;;;6.20;3.35;;;7.80;88.20;;;;;;6247742;23;20153;-76
2021/11/07 15:16:40;;;;;;;7.75;3.83;;;7.70;87.80;;;;;;6246441;23;20000;-76
2021/11/07 15:19:14;;;;;;;6.43;3.28;;;7.70;88.10;;;;;;6219158;23;20004;-74
2021/11/07 15:24:37;;;;;;;5.55;2.80;;;7.70;88.70;;;;;;6257857;23;20043;-74
2021/11/07 15:27:05;;;;;;;5.97;3.15;;;7.70;88.50;;;;;;6246463;23;20034;-75
2021/11/07 15:29:43;;;;;;;6.20;2.97;;;7.80;88.70;;;;;;6248537;23;20428;-74
2021/11/07 15:32:16;;;;;;;5.80;2.80;;;7.80;89.70;;;;;;6248229;23;20000;-75
2021/11/07 15:34:46;;;;;;;6.38;3.45;;;7.90;89.00;;;;;;6243802;23;20016;-76
2021/11/07 15:37:27;;;;;;;7.32;4.15;;;7.90;89.10;;;;;;6246706;22;19996;-75